Time;durP1;ratioP1;P1;durP2;ratioP2;P2;SDS_P1;SDS_P2;PMS_P1;PMS_P2;Temp;Humidity;BMP_temperature;BMP_pressure;BME280_temperature;BME280_humidity;BME280_pressure;Samples;Min_cycle;Max_cycle;Signal;HPM_P1;HPM_P2
2021/12/16 00:01:59;;;;;;;0.65;0.65;;;;;;;2.66;93.65;98601.94;29395;212;63016;-60
2021/12/16 00:06:02;;;;;;;0.60;0.60;;;;;;;2.68;93.21;98599.91;29373;203;63005;-60
2021/12/16 00:07:49;;;;;;;0.60;0.60;;;;;;;2.65;93.45;98600.28;29395;222;63004;-60
2021/12/16 00:09:15;;;;;;;0.60;0.60;;;;;;;2.64;93.45;98598.63;29417;251;63005;-59
2021/12/16 00:10:03;;;;;;;0.60;0.60;;;;;;;2.64;93.29;98606.69;29394;308;64014;-59
2021/12/16 00:10:38;;;;;;;0.60;0.60;;;;;;;2.65;93.60;98602.97;29395;203;63005;-61
2021/12/16 00:29:21;;;;;;;0.60;0.60;;;;;;;2.58;94.02;98610.16;29439;219;63004;-60
2021/12/16 00:30:09;;;;;;;0.60;0.60;;;;;;;2.58;94.17;98609.31;29395;208;63009;-61
2021/12/16 00:31:48;;;;;;;0.60;0.60;;;;;;;2.59;94.28;98594.91;29416;231;64013;-58
2021/12/16 00:33:38;;;;;;;0.60;0.60;;;;;;;2.60;93.96;98607.28;29395;219;63009;-59
2021/12/16 00:34:10;;;;;;;0.60;0.60;;;;;;;2.61;94.20;98604.41;29395;197;63005;-60
2021/12/16 00:34:41;;;;;;;0.60;0.60;;;;;;;2.61;93.90;98607.06;29395;197;63009;-60
2021/12/16 00:35:16;;;;;;;0.60;0.60;;;;;;;2.60;93.81;98605.41;29394;238;64009;-61
2021/12/16 00:35:51;;;;;;;0.60;0.60;;;;;;;2.60;93.94;98608.09;29395;197;63009;-60
2021/12/16 00:36:25;;;;;;;0.60;0.60;;;;;;;2.60;94.16;98607.28;29395;250;63004;-59
2021/12/16 00:36:57;;;;;;;0.60;0.60;;;;;;;2.58;94.31;98607.47;29394;225;64013;-60
2021/12/16 00:37:29;;;;;;;0.60;0.60;;;;;;;2.58;94.11;98604.78;29395;204;63004;-60
2021/12/16 00:38:00;;;;;;;0.60;0.60;;;;;;;2.58;94.25;98604.78;29395;284;63009;-59
2021/12/16 00:38:32;;;;;;;0.60;0.60;;;;;;;2.58;94.05;98599.44;29395;196;63004;-60
2021/12/16 00:39:26;;;;;;;0.60;0.60;;;;;;;2.56;94.17;98600.66;29395;219;63008;-60
2021/12/16 00:39:57;;;;;;;1.17;1.17;;;;;;;2.54;94.70;98603.53;29395;225;63005;-60
2021/12/16 00:40:29;;;;;;;0.60;0.60;;;;;;;2.53;94.55;98607.25;29395;210;63009;-60
2021/12/16 00:41:01;;;;;;;0.60;0.60;;;;;;;2.54;94.71;98597.34;29395;202;63005;-59
2021/12/16 00:41:33;;;;;;;0.60;0.60;;;;;;;2.54;94.53;98602.72;29395;225;63009;-59
2021/12/16 00:42:13;;;;;;;0.70;0.70;;;;;;;2.55;94.74;98599.81;29394;203;64009;-60
2021/12/16 00:42:52;;;;;;;0.60;0.60;;;;;;;2.54;94.50;98598.19;29395;282;63009;-60
2021/12/16 00:43:45;;;;;;;0.60;0.60;;;;;;;2.54;94.65;98614.25;29395;270;63004;-60
2021/12/16 00:45:37;;;;;;;0.60;0.60;;;;;;;2.53;94.58;98601.88;29395;202;63004;-60
2021/12/16 00:46:15;;;;;;;0.60;0.60;;;;;;;2.54;94.77;98603.53;29395;202;63008;-61
2021/12/16 00:47:50;;;;;;;0.60;0.60;;;;;;;2.54;94.95;98603.53;29394;232;64014;-59
2021/12/16 00:48:24;;;;;;;0.70;0.70;;;;;;;2.52;94.67;98600.22;29417;202;63016;-58
2021/12/16 00:50:19;;;;;;;0.60;0.60;;;;;;;2.55;94.80;98605.19;29395;219;63005;-59
2021/12/16 00:54:17;;;;;;;0.60;0.60;;;;;;;2.55;94.53;98613.22;29394;226;64014;-60
2021/12/16 00:54:56;;;;;;;0.60;0.60;;;;;;;2.54;94.18;98603.53;29395;221;63005;-61
2021/12/16 00:55:40;;;;;;;0.60;0.60;;;;;;;2.54;94.31;98606.22;29395;264;63009;-59
2021/12/16 00:56:15;;;;;;;0.60;0.60;;;;;;;2.53;94.24;98612.59;29395;286;63005;-59
2021/12/16 00:56:59;;;;;;;0.60;0.60;;;;;;;2.51;94.12;98603.94;29394;337;64013;-59
2021/12/16 00:57:31;;;;;;;0.60;0.60;;;;;;;2.49;94.39;98603.31;29395;215;63005;-57
2021/12/16 00:58:05;;;;;;;0.60;0.60;;;;;;;2.50;94.54;98602.28;29395;218;63025;-59
2021/12/16 00:58:55;;;;;;;0.60;0.60;;;;;;;2.49;94.38;98600.63;29395;218;63004;-59
2021/12/16 00:59:32;;;;;;;0.60;0.60;;;;;;;2.50;94.52;98604.97;29395;240;63024;-59
2021/12/16 01:00:07;;;;;;;0.60;0.60;;;;;;;2.49;94.30;98603.31;29395;202;63004;-60
2021/12/16 01:00:49;;;;;;;0.60;0.60;;;;;;;2.49;94.50;98603.31;29395;219;63008;-60
2021/12/16 01:02:45;;;;;;;0.60;0.60;;;;;;;2.50;94.64;98604.97;29395;308;63009;-59
2021/12/16 01:03:37;;;;;;;0.70;0.70;;;;;;;2.50;94.67;98607.63;29394;218;64009;-59
2021/12/16 01:04:43;;;;;;;0.60;0.60;;;;;;;2.49;94.56;98608.66;29395;218;63009;-60
2021/12/16 01:08:36;;;;;;;0.60;0.60;;;;;;;2.52;94.60;98618.97;29394;232;64013;-58
2021/12/16 01:09:49;;;;;;;0.60;0.60;;;;;;;2.53;94.85;98614.44;29395;234;63016;-61
2021/12/16 01:34:28;;;;;;;0.60;0.60;;;;;;;2.59;94.73;98614.47;29394;207;64013;-59
2021/12/16 01:35:17;;;;;;;0.60;0.60;;;;;;;2.59;94.63;98621.69;29395;211;63005;-59
2021/12/16 01:40:07;;;;;;;0.60;0.60;;;;;;;2.56;94.39;98606.84;29395;210;63009;-58
2021/12/16 01:45:26;;;;;;;0.60;0.60;;;;;;;2.55;94.62;98617.75;29395;197;63005;-58
2021/12/16 01:47:53;;;;;;;0.60;0.60;;;;;;;2.58;94.67;98620.87;29395;235;63009;-60
2021/12/16 01:49:47;;;;;;;0.60;0.60;;;;;;;2.61;94.39;98615.13;29394;218;64013;-61
2021/12/16 01:50:30;;;;;;;0.60;0.60;;;;;;;2.63;94.10;98617.59;29395;255;63005;-59
2021/12/16 01:51:15;;;;;;;0.60;0.60;;;;;;;2.63;94.13;98621.09;29395;239;63023;-59
2021/12/16 01:52:26;;;;;;;0.60;0.60;;;;;;;2.63;93.82;98613.06;29394;233;64009;-59
2021/12/16 01:53:04;;;;;;;0.60;0.60;;;;;;;2.62;94.02;98616.78;29395;197;63009;-60
2021/12/16 01:54:04;;;;;;;0.60;0.60;;;;;;;2.63;94.22;98617.59;29395;232;63004;-59
2021/12/16 01:54:42;;;;;;;0.60;0.60;;;;;;;2.64;94.19;98613.87;29417;227;63009;-58
2021/12/16 01:55:29;;;;;;;0.60;0.60;;;;;;;2.64;93.78;98614.72;29395;207;63005;-59
2021/12/16 01:57:20;;;;;;;0.60;0.60;;;;;;;2.67;93.66;98619.69;29394;210;64009;-59
2021/12/16 01:57:59;;;;;;;0.60;0.60;;;;;;;2.65;93.83;98616.38;29395;210;63009;-59
2021/12/16 01:58:32;;;;;;;0.60;0.60;;;;;;;2.63;93.68;98610.38;29395;222;63004;-59
2021/12/16 01:59:06;;;;;;;0.60;0.60;;;;;;;2.61;93.82;98608.94;29395;219;63009;-59
2021/12/16 01:59:40;;;;;;;0.60;0.60;;;;;;;2.61;93.72;98609.75;29394;198;64007;-60
2021/12/16 02:00:52;;;;;;;0.60;0.60;;;;;;;2.60;93.99;98621.50;29395;273;63008;-59
2021/12/16 02:01:32;;;;;;;0.85;0.85;;;;;;;2.58;93.80;98620.03;29479;241;125005;-59
2021/12/16 02:02:23;;;;;;;0.60;0.60;;;;;;;2.59;93.91;98611.81;29479;228;125009;-60
2021/12/16 02:03:04;;;;;;;0.60;0.60;;;;;;;2.58;93.99;98620.87;29395;234;63005;-60
2021/12/16 02:03:41;;;;;;;0.60;0.60;;;;;;;2.58;93.82;98610.16;29395;207;63009;-60
2021/12/16 02:04:29;;;;;;;0.60;0.60;;;;;;;2.57;94.15;98613.03;29394;224;64009;-59
2021/12/16 02:05:23;;;;;;;0.60;0.60;;;;;;;2.58;94.02;98612.00;29394;232;64013;-59
2021/12/16 02:06:15;;;;;;;0.60;0.60;;;;;;;2.58;93.98;98610.16;29395;327;63004;-60
2021/12/16 02:07:07;;;;;;;0.60;0.60;;;;;;;2.57;94.21;98602.31;29395;280;63009;-60
2021/12/16 02:08:33;;;;;;;0.60;0.60;;;;;;;2.57;94.01;98602.31;29395;247;63009;-60
2021/12/16 02:09:12;;;;;;;0.60;0.60;;;;;;;2.55;94.38;98599.81;29395;337;63005;-58
2021/12/16 02:09:46;;;;;;;0.60;0.60;;;;;;;2.56;94.22;98606.84;29394;255;64013;-58
2021/12/16 02:10:27;;;;;;;6.68;6.18;;;;;;;2.56;94.14;98603.34;29395;224;63005;-61
2021/12/16 02:11:23;;;;;;;;;;;;;;;2.55;94.12;98607.88;29996;982;6005;-60
2021/12/16 02:27:36;;;;;;;0.60;0.60;;;;;;;2.57;94.27;98597.78;29395;309;63009;-57
2021/12/16 02:32:01;;;;;;;0.60;0.60;;;;;;;2.49;94.34;98589.06;29416;197;64009;-59
2021/12/16 02:34:32;;;;;;;0.60;0.60;;;;;;;2.50;94.31;98602.28;29417;238;63009;-60
2021/12/16 02:37:14;;;;;;;;;;;;;;;2.49;94.46;98592.59;29996;983;5998;-59
2021/12/16 02:37:48;;;;;;;0.70;0.70;;;;;;;2.49;94.19;98589.91;29400;257;63009;-60
2021/12/16 02:38:20;;;;;;;0.70;0.70;;;;;;;2.47;94.23;98591.97;29395;235;63005;-59
2021/12/16 02:38:56;;;;;;;0.60;0.60;;;;;;;2.46;94.53;98590.31;29395;239;63001;-59
2021/12/16 02:39:32;;;;;;;0.70;0.70;;;;;;;2.44;94.41;98587.00;29395;249;63005;-59
2021/12/16 02:40:08;;;;;;;0.60;0.60;;;;;;;2.44;94.43;98586.16;29395;222;63000;-59
2021/12/16 02:40:40;;;;;;;0.60;0.60;;;;;;;2.45;94.39;98588.66;29395;204;63005;-59
2021/12/16 02:41:12;;;;;;;0.60;0.60;;;;;;;2.45;94.39;98594.00;29395;202;63000;-60
2021/12/16 02:41:46;;;;;;;0.60;0.60;;;;;;;2.46;94.54;98586.78;29395;203;63005;-59
2021/12/16 02:42:23;;;;;;;0.60;0.60;;;;;;;2.45;94.59;98588.66;29394;216;64009;-59
2021/12/16 02:43:10;;;;;;;0.60;0.60;;;;;;;2.44;94.48;98592.34;29395;219;63009;-58
2021/12/16 02:44:07;;;;;;;0.60;0.60;;;;;;;2.43;94.44;98584.50;29395;250;63004;-58
2021/12/16 02:48:29;;;;;;;0.85;0.85;;;;;;;2.42;94.88;98586.41;29395;244;63009;-59
2021/12/16 02:48:52;;;;;;;0.60;0.60;;;;;;;2.48;94.68;98582.91;29394;197;64009;-59
2021/12/16 02:49:25;;;;;;;0.60;0.60;;;;;;;2.52;94.60;98586.00;29395;202;63009;-58
2021/12/16 02:49:57;;;;;;;0.60;0.60;;;;;;;2.52;94.48;98588.69;29395;216;63005;-59
2021/12/16 02:50:29;;;;;;;0.60;0.60;;;;;;;2.49;94.26;98589.91;29395;236;63009;-60
2021/12/16 02:51:13;;;;;;;0.60;0.60;;;;;;;2.49;94.32;98595.25;29394;199;64009;-59
2021/12/16 02:51:46;;;;;;;0.60;0.60;;;;;;;2.51;94.27;98595.06;29395;227;64013;-59
2021/12/16 02:52:20;;;;;;;0.60;0.60;;;;;;;2.50;94.41;98599.59;29396;209;63004;-59
2021/12/16 02:52:52;;;;;;;0.60;0.60;;;;;;;2.50;94.11;98596.91;29396;218;63008;-60
2021/12/16 02:53:24;;;;;;;0.60;0.60;;;;;;;2.50;94.45;98596.91;29396;252;63005;-60
2021/12/16 02:54:00;;;;;;;0.60;0.60;;;;;;;2.50;93.96;98596.91;29396;209;63009;-60
2021/12/16 02:54:31;;;;;;;0.60;0.60;;;;;;;2.51;94.35;98597.75;29396;245;63005;-59
2021/12/16 02:55:05;;;;;;;0.60;0.60;;;;;;;2.51;94.12;98598.56;29396;223;63024;-61
2021/12/16 02:55:36;;;;;;;0.60;0.60;;;;;;;2.53;94.21;98601.88;29396;214;63005;-58
2021/12/16 02:56:08;;;;;;;0.60;0.60;;;;;;;2.54;94.34;98592.81;29395;200;64013;-60
2021/12/16 02:56:40;;;;;;;0.60;0.60;;;;;;;2.54;94.31;98597.34;29396;228;63011;-59
2021/12/16 02:57:12;;;;;;;0.60;0.60;;;;;;;2.53;94.08;98599.19;29396;221;63009;-58
2021/12/16 02:57:59;;;;;;;0.60;0.60;;;;;;;2.53;94.19;98598.37;29396;209;63004;-59
2021/12/16 02:58:32;;;;;;;0.60;0.60;;;;;;;2.53;93.94;98591.16;29396;208;63027;-59
2021/12/16 02:59:05;;;;;;;0.60;0.60;;;;;;;2.54;94.28;98595.50;29396;219;63004;-59
2021/12/16 02:59:36;;;;;;;0.68;0.68;;;;;;;2.56;94.14;98585.41;29395;198;64013;-59
2021/12/16 03:00:12;;;;;;;0.60;0.60;;;;;;;2.57;94.26;98592.41;29396;245;63004;-59
2021/12/16 03:00:52;;;;;;;0.60;0.60;;;;;;;2.56;93.97;98589.94;29396;196;63008;-60
2021/12/16 03:01:35;;;;;;;0.60;0.60;;;;;;;2.58;94.00;98591.41;29396;227;63005;-60
2021/12/16 03:02:12;;;;;;;0.60;0.60;;;;;;;2.57;94.05;98596.94;29396;218;63009;-59
2021/12/16 03:02:48;;;;;;;0.60;0.60;;;;;;;2.56;94.07;98598.81;29396;208;63005;-59
2021/12/16 03:03:19;;;;;;;0.60;0.60;;;;;;;2.56;93.78;98596.13;29396;227;63009;-60
2021/12/16 03:03:51;;;;;;;0.60;0.60;;;;;;;2.54;93.93;98592.81;29396;246;63005;-60
2021/12/16 03:04:26;;;;;;;0.60;0.60;;;;;;;2.54;93.79;98594.66;29396;208;63009;-58
2021/12/16 03:04:57;;;;;;;0.60;0.60;;;;;;;2.55;93.93;98597.16;29395;283;64009;-59
2021/12/16 03:05:28;;;;;;;0.60;0.60;;;;;;;2.56;94.30;98596.13;29396;199;63009;-59
2021/12/16 03:06:02;;;;;;;0.60;0.60;;;;;;;2.56;94.22;98590.75;29396;240;63004;-60
2021/12/16 03:06:34;;;;;;;0.60;0.60;;;;;;;2.55;94.06;98591.78;29396;226;63009;-59
2021/12/16 03:07:10;;;;;;;0.60;0.60;;;;;;;2.55;94.17;98599.81;29396;310;63004;-60
2021/12/16 03:07:41;;;;;;;0.60;0.60;;;;;;;2.57;93.88;98597.78;29396;219;63019;-59
2021/12/16 03:08:13;;;;;;;0.60;0.60;;;;;;;2.58;93.87;98604.78;29396;238;63004;-60
2021/12/16 03:08:45;;;;;;;0.70;0.70;;;;;;;2.56;93.76;98600.66;29396;239;63009;-60
2021/12/16 03:09:24;;;;;;;0.60;0.60;;;;;;;2.54;93.73;98597.34;29396;224;63005;-60
2021/12/16 03:10:37;;;;;;;0.60;0.60;;;;;;;2.51;94.06;98598.56;29396;218;63009;-59
2021/12/16 03:11:08;;;;;;;0.60;0.60;;;;;;;2.54;93.89;98597.34;29395;287;64009;-58
2021/12/16 03:12:27;;;;;;;0.60;0.60;;;;;;;2.52;94.10;98597.53;29396;278;63009;-59
2021/12/16 03:12:54;;;;;;;0.60;0.60;;;;;;;2.54;94.15;98598.19;29396;228;63004;-60
2021/12/16 03:13:31;;;;;;;0.60;0.60;;;;;;;2.53;94.24;98595.69;29396;225;63009;-58
2021/12/16 03:15:13;;;;;;;0.70;0.70;;;;;;;2.56;94.32;98590.75;29396;249;63015;-58
2021/12/16 03:17:57;;;;;;;0.70;0.70;;;;;;;2.55;94.32;98589.13;29396;222;63005;-59
2021/12/16 03:19:06;;;;;;;0.60;0.60;;;;;;;2.55;94.11;98594.47;29396;213;63014;-60
2021/12/16 03:20:46;;;;;;;0.60;0.60;;;;;;;2.54;94.16;98587.47;29395;278;64013;-60
2021/12/16 03:21:28;;;;;;;0.60;0.60;;;;;;;2.52;94.04;98589.50;29396;232;63004;-59
2021/12/16 03:22:02;;;;;;;0.60;0.60;;;;;;;2.53;94.03;98591.16;29396;267;63008;-59
2021/12/16 03:25:48;;;;;;;0.60;0.60;;;;;;;2.54;93.92;98592.81;29396;199;63009;-60
2021/12/16 03:26:55;;;;;;;0.60;0.60;;;;;;;2.55;93.96;98589.13;29396;266;63009;-59
2021/12/16 03:27:37;;;;;;;0.70;0.70;;;;;;;2.57;93.83;98591.59;29375;286;63009;-60
2021/12/16 03:30:41;;;;;;;0.60;0.60;;;;;;;2.58;93.72;98588.72;29396;236;63005;-59
2021/12/16 03:32:20;;;;;;;0.60;0.60;;;;;;;2.53;93.66;98599.19;29396;231;63005;-60
2021/12/16 03:33:23;;;;;;;0.70;0.70;;;;;;;2.52;94.01;98594.03;29396;221;63009;-60
2021/12/16 03:33:58;;;;;;;0.60;0.60;;;;;;;2.49;93.77;98595.25;29396;212;63005;-60
2021/12/16 03:34:44;;;;;;;0.70;0.70;;;;;;;2.51;93.90;98595.91;29395;203;64013;-60
2021/12/16 03:35:30;;;;;;;0.70;0.70;;;;;;;2.53;93.69;98595.69;29396;289;63004;-60
2021/12/16 03:36:13;;;;;;;0.60;0.60;;;;;;;2.52;94.25;98592.19;29397;210;63009;-60
2021/12/16 03:37:14;;;;;;;0.60;0.60;;;;;;;2.54;93.98;98595.50;29397;210;63018;-60
2021/12/16 03:37:46;;;;;;;0.60;0.60;;;;;;;2.54;94.09;98598.19;29397;208;63023;-60
2021/12/16 03:38:17;;;;;;;0.60;0.60;;;;;;;2.56;93.90;98600.66;29397;213;63005;-59
2021/12/16 03:38:51;;;;;;;0.60;0.60;;;;;;;2.54;93.95;98592.81;29397;228;63009;-60
2021/12/16 03:39:24;;;;;;;0.70;0.70;;;;;;;2.53;93.91;98596.53;29397;239;63005;-59
2021/12/16 03:40:14;;;;;;;0.60;0.60;;;;;;;2.54;93.95;98592.00;29396;272;64013;-60
2021/12/16 03:40:46;;;;;;;0.60;0.60;;;;;;;2.51;94.27;98598.56;29397;202;63005;-59
2021/12/16 03:41:18;;;;;;;0.60;0.60;;;;;;;2.52;94.25;98602.91;29397;236;63009;-60
2021/12/16 03:41:50;;;;;;;0.60;0.60;;;;;;;2.53;94.35;98612.59;29397;216;63005;-60
2021/12/16 03:42:30;;;;;;;0.70;0.70;;;;;;;2.53;94.33;98606.41;29397;238;63009;-60
2021/12/16 03:43:07;;;;;;;0.60;0.60;;;;;;;2.53;94.37;98596.53;29397;214;63004;-59
2021/12/16 03:43:39;;;;;;;0.70;0.70;;;;;;;2.53;94.26;98601.88;29397;222;63016;-60
2021/12/16 03:44:14;;;;;;;0.70;0.70;;;;;;;2.52;94.33;98589.50;29396;220;64009;-59
2021/12/16 03:44:55;;;;;;;0.60;0.60;;;;;;;2.54;94.36;98592.81;29397;211;63008;-59
2021/12/16 03:46:26;;;;;;;0.60;0.60;;;;;;;2.53;94.44;98601.88;29419;218;63005;-59
2021/12/16 03:46:58;;;;;;;0.70;0.70;;;;;;;2.47;94.04;98600.00;29396;240;64014;-60
2021/12/16 03:47:47;;;;;;;3.17;2.90;;;;;;;2.49;94.15;98603.31;29397;197;63005;-60
2021/12/16 03:49:00;;;;;;;0.60;0.60;;;;;;;2.49;94.05;98605.16;29396;214;63027;-60
2021/12/16 03:49:33;;;;;;;0.60;0.60;;;;;;;2.46;94.01;98606.37;29396;203;63008;-60
2021/12/16 03:50:11;;;;;;;0.60;0.60;;;;;;;2.46;94.04;98601.03;29395;235;64013;-59
2021/12/16 03:50:43;;;;;;;0.60;0.60;;;;;;;2.48;94.03;98609.69;29397;241;63004;-59
2021/12/16 03:51:25;;;;;;;0.60;0.60;;;;;;;2.49;94.32;98605.97;29396;289;63009;-62
2021/12/16 03:52:07;;;;;;;0.60;0.60;;;;;;;2.50;94.02;98613.00;29396;224;63004;-59
2021/12/16 03:52:38;;;;;;;0.60;0.60;;;;;;;2.49;94.44;98611.34;29396;234;63008;-58
2021/12/16 03:53:13;;;;;;;0.60;0.60;;;;;;;2.49;94.45;98611.34;29396;213;63005;-60
2021/12/16 03:53:48;;;;;;;0.60;0.60;;;;;;;2.49;94.16;98613.19;29395;204;64014;-59
2021/12/16 03:54:23;;;;;;;0.70;0.70;;;;;;;2.50;94.19;98618.34;29396;206;63005;-59
2021/12/16 03:54:56;;;;;;;0.70;0.70;;;;;;;2.50;94.20;98613.00;29396;216;63009;-60
2021/12/16 03:55:27;;;;;;;0.60;0.60;;;;;;;2.50;94.38;98610.31;29396;229;63005;-60
2021/12/16 03:55:59;;;;;;;0.60;0.60;;;;;;;2.49;94.73;98611.34;29396;236;63009;-58
2021/12/16 03:56:33;;;;;;;0.60;0.60;;;;;;;2.50;94.70;98613.00;29396;218;63005;-59
2021/12/16 03:57:07;;;;;;;0.60;0.60;;;;;;;2.49;95.15;98619.38;29396;217;63009;-59
2021/12/16 03:57:39;;;;;;;0.60;0.60;;;;;;;2.49;95.02;98616.69;29396;196;63008;-60
2021/12/16 03:58:11;;;;;;;0.70;0.70;;;;;;;2.51;95.00;98616.50;29396;211;63009;-60
2021/12/16 03:58:43;;;;;;;0.60;0.60;;;;;;;2.52;95.05;98616.31;29396;371;63004;-60
2021/12/16 03:59:19;;;;;;;0.60;0.60;;;;;;;2.51;95.05;98617.34;29395;203;64013;-59
2021/12/16 03:59:51;;;;;;;0.60;0.60;;;;;;;2.53;94.98;98617.97;29396;226;63004;-60
2021/12/16 04:00:31;;;;;;;0.60;0.60;;;;;;;2.52;95.15;98621.66;29396;203;63008;-60
2021/12/16 04:01:09;;;;;;;0.60;0.60;;;;;;;2.52;95.12;98615.47;29418;219;63005;-59
2021/12/16 04:01:41;;;;;;;0.60;0.60;;;;;;;2.53;94.91;98623.31;29396;210;63009;-60
2021/12/16 04:02:33;;;;;;;0.60;0.60;;;;;;;2.53;94.59;98617.97;29396;286;63005;-60
2021/12/16 04:03:04;;;;;;;0.70;0.70;;;;;;;2.53;94.98;98623.31;29396;197;63009;-60
2021/12/16 04:03:36;;;;;;;0.60;0.60;;;;;;;2.52;94.61;98616.31;29396;211;63005;-58
2021/12/16 04:04:07;;;;;;;0.60;0.60;;;;;;;2.53;94.97;98623.31;29396;220;63009;-60
2021/12/16 04:04:41;;;;;;;0.60;0.60;;;;;;;2.54;94.81;98624.97;29395;218;64001;-60
2021/12/16 04:05:13;;;;;;;0.60;0.60;;;;;;;2.54;94.54;98624.16;29396;224;63009;-60
2021/12/16 04:05:46;;;;;;;0.80;0.80;;;;;;;2.54;94.40;98622.28;29396;238;63011;-60
2021/12/16 04:06:20;;;;;;;0.60;0.60;;;;;;;2.54;94.65;98619.63;29396;197;63009;-60
2021/12/16 04:06:52;;;;;;;0.60;0.60;;;;;;;2.55;94.46;98621.28;29396;216;63004;-60
2021/12/16 04:07:27;;;;;;;0.70;0.70;;;;;;;2.58;94.71;98628.91;29396;206;63008;-59
2021/12/16 04:07:58;;;;;;;0.60;0.60;;;;;;;2.56;94.37;98622.09;29396;206;63005;-61
2021/12/16 04:08:29;;;;;;;0.60;0.60;;;;;;;2.60;94.54;98629.53;29396;237;63009;-60
2021/12/16 04:09:09;;;;;;;0.60;0.60;;;;;;;2.59;94.46;98627.88;29395;210;64009;-60
2021/12/16 04:09:40;;;;;;;0.60;0.60;;;;;;;2.58;94.15;98620.87;29396;214;63009;-58
2021/12/16 04:10:19;;;;;;;0.60;0.60;;;;;;;2.59;94.24;98622.53;29396;246;63005;-58
2021/12/16 04:11:02;;;;;;;0.60;0.60;;;;;;;2.60;94.35;98620.66;29396;210;63009;-58
2021/12/16 04:11:41;;;;;;;0.98;0.98;;;;;;;2.59;93.88;98617.16;29396;199;63004;-59
2021/12/16 04:12:19;;;;;;;0.60;0.60;;;;;;;2.59;94.24;98621.69;29395;237;64013;-60
2021/12/16 04:12:51;;;;;;;0.60;0.60;;;;;;;2.60;94.00;98629.53;29396;228;63004;-59
2021/12/16 04:13:23;;;;;;;0.60;0.60;;;;;;;2.60;94.36;98624.19;29396;227;63009;-60
2021/12/16 04:13:57;;;;;;;0.60;0.60;;;;;;;2.59;93.93;98622.53;29396;214;63004;-59
2021/12/16 04:14:29;;;;;;;0.60;0.60;;;;;;;2.59;94.29;98622.53;29396;198;63008;-59
2021/12/16 04:15:03;;;;;;;0.60;0.60;;;;;;;2.60;93.95;98618.81;29396;202;63004;-58
2021/12/16 04:15:35;;;;;;;0.70;0.70;;;;;;;2.60;94.29;98620.66;29396;216;63009;-61
2021/12/16 04:16:07;;;;;;;0.60;0.60;;;;;;;2.59;94.22;98617.16;29396;249;63005;-58
2021/12/16 04:16:48;;;;;;;0.60;0.60;;;;;;;2.58;94.46;98618.19;29396;203;63009;-59
2021/12/16 04:17:21;;;;;;;;;;;;;;;2.60;94.49;98624.19;29996;982;6005;-66
2021/12/16 04:17:52;;;;;;;0.60;0.60;;;;;;;2.62;94.42;98623.97;29400;236;63010;-59
2021/12/16 04:18:23;;;;;;;0.60;0.60;;;;;;;2.65;94.37;98619.06;29395;239;64013;-59
2021/12/16 04:18:57;;;;;;;0.60;0.60;;;;;;;2.66;94.27;98623.38;29396;339;63004;-64
2021/12/16 04:19:31;;;;;;;0.60;0.60;;;;;;;2.65;93.91;98618.22;29396;227;63009;-59
2021/12/16 04:20:08;;;;;;;0.50;0.50;;;;;;;2.65;94.06;98621.72;29396;222;63000;-60
2021/12/16 04:20:39;;;;;;;0.60;0.60;;;;;;;2.64;93.69;98620.06;29396;288;63009;-63
2021/12/16 04:21:11;;;;;;;0.60;0.60;;;;;;;2.68;93.98;98624.00;29396;227;63004;-63
2021/12/16 04:21:47;;;;;;;0.60;0.60;;;;;;;2.66;93.72;98618.03;29396;223;63008;-59
2021/12/16 04:22:30;;;;;;;0.60;0.60;;;;;;;2.66;93.50;98622.56;29396;215;63005;-58
2021/12/16 04:23:05;;;;;;;0.60;0.60;;;;;;;2.63;93.64;98623.78;29396;228;63009;-62
2021/12/16 04:23:37;;;;;;;0.60;0.60;;;;;;;2.61;93.65;98614.28;29395;234;64009;-61
2021/12/16 04:24:09;;;;;;;0.60;0.60;;;;;;;2.60;93.75;98618.81;29396;268;63026;-61
2021/12/16 04:24:41;;;;;;;0.60;0.60;;;;;;;2.61;93.60;98623.16;29396;204;63005;-66
2021/12/16 04:25:23;;;;;;;0.60;0.60;;;;;;;2.59;93.75;98622.53;29396;216;63009;-66
2021/12/16 04:25:55;;;;;;;0.75;0.75;;;;;;;2.59;93.75;98627.88;29396;215;63005;-61
2021/12/16 04:26:28;;;;;;;0.60;0.60;;;;;;;2.59;93.82;98627.88;29396;221;63009;-60
2021/12/16 04:27:00;;;;;;;1.17;1.17;;;;;;;2.58;93.66;98628.91;29396;217;64002;-61
2021/12/16 04:27:33;;;;;;;0.60;0.60;;;;;;;2.56;93.67;98619.41;29396;214;63009;-59
2021/12/16 04:28:12;;;;;;;0.60;0.60;;;;;;;2.55;93.99;98620.44;29396;218;63004;-60
2021/12/16 04:28:44;;;;;;;0.60;0.60;;;;;;;2.56;93.80;98617.56;29396;247;63009;-59
2021/12/16 04:29:17;;;;;;;0.60;0.60;;;;;;;2.59;93.75;98617.16;29396;238;63010;-58
2021/12/16 04:29:49;;;;;;;0.60;0.60;;;;;;;2.62;93.86;98615.94;29396;210;63009;-64
2021/12/16 04:30:24;;;;;;;0.60;0.60;;;;;;;2.68;93.53;98620.50;29396;226;63001;-62
2021/12/16 04:30:56;;;;;;;0.62;0.62;;;;;;;2.66;93.27;98612.66;29395;223;64014;-65
2021/12/16 04:31:27;;;;;;;0.60;0.60;;;;;;;2.64;93.11;98612.03;29396;197;63017;-63
2021/12/16 04:32:00;;;;;;;0.60;0.60;;;;;;;2.62;93.03;98619.44;29396;222;63009;-59
2021/12/16 04:32:31;;;;;;;0.60;0.60;;;;;;;2.60;93.28;98618.81;29396;236;63005;-62
2021/12/16 04:33:03;;;;;;;0.60;0.60;;;;;;;2.64;93.05;98617.41;29396;236;63009;-57
2021/12/16 04:33:39;;;;;;;0.60;0.60;;;;;;;2.64;93.22;98620.06;29395;211;64005;-61
2021/12/16 04:34:12;;;;;;;0.60;0.60;;;;;;;2.66;93.19;98623.38;29396;202;63009;-62
2021/12/16 04:34:44;;;;;;;0.60;0.60;;;;;;;2.66;93.08;98607.31;29396;391;63004;-58
2021/12/16 04:35:17;;;;;;;0.60;0.60;;;;;;;2.66;92.92;98618.03;29396;208;63009;-60
2021/12/16 04:35:48;;;;;;;0.60;0.60;;;;;;;2.64;93.21;98614.72;29395;229;64009;-60
2021/12/16 04:36:20;;;;;;;0.60;0.60;;;;;;;2.65;92.94;98621.72;29396;202;63009;-58
2021/12/16 04:36:55;;;;;;;0.60;0.60;;;;;;;2.65;93.27;98616.38;29396;362;63009;-59
2021/12/16 04:37:27;;;;;;;0.60;0.60;;;;;;;2.66;93.05;98618.03;29396;205;63009;-60
2021/12/16 04:37:59;;;;;;;0.60;0.60;;;;;;;2.64;93.07;98620.06;29396;200;63005;-60
2021/12/16 04:38:30;;;;;;;0.60;0.60;;;;;;;2.62;93.28;98621.31;29397;198;63021;-61
2021/12/16 04:39:07;;;;;;;0.70;0.70;;;;;;;2.59;93.71;98619.84;29397;209;63005;-61
2021/12/16 04:39:41;;;;;;;9.50;7.43;;;;;;;2.58;93.79;98623.56;29395;293;64009;-60
2021/12/16 04:40:15;;;;;;;0.60;0.60;;;;;;;2.58;93.90;98618.19;29397;229;63005;-61
2021/12/16 04:40:49;;;;;;;0.60;0.60;;;;;;;2.59;93.85;98622.53;29397;231;63009;-59
2021/12/16 04:41:21;;;;;;;0.60;0.60;;;;;;;2.58;93.71;98620.87;29394;247;64009;-61
2021/12/16 04:41:54;;;;;;;0.60;0.60;;;;;;;2.66;93.64;98623.38;29395;208;63009;-60
2021/12/16 04:42:26;;;;;;;0.60;0.60;;;;;;;2.66;93.53;98623.38;29394;215;64009;-59
2021/12/16 04:43:01;;;;;;;0.60;0.60;;;;;;;2.66;93.73;98622.56;29394;230;64013;-59
2021/12/16 04:43:41;;;;;;;0.60;0.60;;;;;;;2.65;93.55;98621.72;29395;217;63004;-59
2021/12/16 04:44:15;;;;;;;0.60;0.60;;;;;;;2.63;93.66;98623.78;29394;293;64013;-58
2021/12/16 04:44:47;;;;;;;0.60;0.60;;;;;;;2.63;93.63;98618.41;29395;236;63004;-59
2021/12/16 04:45:20;;;;;;;0.60;0.60;;;;;;;2.63;93.52;98618.41;29395;205;63009;-61
2021/12/16 04:45:52;;;;;;;0.60;0.60;;;;;;;2.63;93.60;98618.41;29395;212;63005;-59
2021/12/16 04:46:28;;;;;;;0.70;0.70;;;;;;;2.63;93.90;98612.22;29395;203;63016;-60
2021/12/16 04:47:03;;;;;;;1.02;1.02;;;;;;;2.63;93.66;98613.06;29395;260;63005;-59
2021/12/16 04:47:35;;;;;;;0.60;0.60;;;;;;;2.63;93.71;98621.09;29395;213;63009;-60
2021/12/16 04:48:07;;;;;;;0.60;0.60;;;;;;;2.64;93.97;98614.72;29395;234;63017;-61
2021/12/16 04:48:40;;;;;;;0.60;0.60;;;;;;;2.64;93.75;98614.72;29395;227;63009;-61
2021/12/16 04:49:13;;;;;;;0.60;0.60;;;;;;;2.64;94.08;98614.72;29395;208;63004;-58
2021/12/16 04:49:45;;;;;;;0.70;0.70;;;;;;;2.67;94.13;98613.50;29393;202;64013;-62
2021/12/16 04:50:17;;;;;;;0.60;0.60;;;;;;;2.67;94.00;98614.31;29395;222;63004;-60
2021/12/16 04:50:49;;;;;;;0.60;0.60;;;;;;;2.65;93.96;98611.00;29393;213;64013;-60
2021/12/16 04:51:25;;;;;;;0.60;0.60;;;;;;;2.65;93.66;98605.66;29395;215;63004;-63
2021/12/16 04:52:01;;;;;;;0.60;0.60;;;;;;;2.65;93.56;98616.38;29395;239;63008;-62
2021/12/16 04:52:32;;;;;;;0.60;0.60;;;;;;;2.65;93.44;98613.69;29395;250;63005;-61
2021/12/16 04:53:03;;;;;;;0.60;0.60;;;;;;;2.64;93.69;98614.72;29395;199;63009;-61
2021/12/16 04:53:37;;;;;;;0.60;0.60;;;;;;;2.64;93.62;98620.06;29395;231;63005;-60
2021/12/16 04:54:10;;;;;;;0.60;0.60;;;;;;;2.64;93.67;98614.72;29393;349;64013;-63
2021/12/16 04:54:42;;;;;;;0.60;0.60;;;;;;;2.64;93.53;98617.41;29395;196;63005;-59
2021/12/16 04:55:15;;;;;;;0.60;0.60;;;;;;;2.62;93.70;98613.25;29395;268;63009;-59
2021/12/16 04:55:47;;;;;;;0.60;0.60;;;;;;;2.61;93.85;98620.47;29394;197;64005;-60